sensor_id;sensor_type;location;lat;lon;timestamp;temperature;humidity
9824;DHT22;4951;50.778;7.196;2023-12-20T00:01:11;7.00;99.90
9824;DHT22;4951;50.778;7.196;2023-12-20T00:03:43;7.00;99.90
9824;DHT22;4951;50.778;7.196;2023-12-20T00:06:32;7.00;99.90
9824;DHT22;4951;50.778;7.196;2023-12-20T00:09:46;7.00;99.90
9824;DHT22;4951;50.778;7.196;2023-12-20T00:12:16;7.00;99.90
9824;DHT22;4951;50.778;7.196;2023-12-20T00:14:55;7.00;99.90
9824;DHT22;4951;50.778;7.196;2023-12-20T00:20:49;7.00;99.90
9824;DHT22;4951;50.778;7.196;2023-12-20T00:23:20;7.00;99.90
9824;DHT22;4951;50.778;7.196;2023-12-20T00:26:03;7.10;99.90
9824;DHT22;4951;50.778;7.196;2023-12-20T00:28:53;7.10;99.90
9824;DHT22;4951;50.778;7.196;2023-12-20T00:31:52;7.10;99.90
9824;DHT22;4951;50.778;7.196;2023-12-20T00:34:35;7.10;99.90
9824;DHT22;4951;50.778;7.196;2023-12-20T00:37:30;7.10;99.90
9824;DHT22;4951;50.778;7.196;2023-12-20T00:40:14;7.10;99.90
9824;DHT22;4951;50.778;7.196;2023-12-20T00:42:47;7.10;99.90
9824;DHT22;4951;50.778;7.196;2023-12-20T00:45:34;7.10;99.90
9824;DHT22;4951;50.778;7.196;2023-12-20T00:48:08;7.10;99.90
9824;DHT22;4951;50.778;7.196;2023-12-20T00:50:40;7.10;99.90
9824;DHT22;4951;50.778;7.196;2023-12-20T00:53:24;7.10;99.90
9824;DHT22;4951;50.778;7.196;2023-12-20T00:56:09;7.10;99.90
9824;DHT22;4951;50.778;7.196;2023-12-20T00:58:42;7.10;99.90
9824;DHT22;4951;50.778;7.196;2023-12-20T01:01:19;7.10;99.90
9824;DHT22;4951;50.778;7.196;2023-12-20T01:03:51;7.10;99.90
9824;DHT22;4951;50.778;7.196;2023-12-20T01:06:25;7.10;99.90
9824;DHT22;4951;50.778;7.196;2023-12-20T01:09:14;7.10;99.90
9824;DHT22;4951;50.778;7.196;2023-12-20T01:11:55;7.10;99.90
9824;DHT22;4951;50.778;7.196;2023-12-20T01:14:48;7.10;99.90
9824;DHT22;4951;50.778;7.196;2023-12-20T01:17:21;7.10;99.90
9824;DHT22;4951;50.778;7.196;2023-12-20T01:19:55;7.10;99.90
9824;DHT22;4951;50.778;7.196;2023-12-20T01:22:29;7.10;99.90
9824;DHT22;4951;50.778;7.196;2023-12-20T01:25:13;7.10;99.90
9824;DHT22;4951;50.778;7.196;2023-12-20T01:27:42;7.10;99.90
9824;DHT22;4951;50.778;7.196;2023-12-20T01:30:15;7.10;99.90
9824;DHT22;4951;50.778;7.196;2023-12-20T01:32:48;7.10;99.90
9824;DHT22;4951;50.778;7.196;2023-12-20T01:35:19;7.10;99.90
9824;DHT22;4951;50.778;7.196;2023-12-20T01:38:09;7.10;99.90
9824;DHT22;4951;50.778;7.196;2023-12-20T01:40:45;7.10;99.90
9824;DHT22;4951;50.778;7.196;2023-12-20T01:43:24;7.10;99.90
9824;DHT22;4951;50.778;7.196;2023-12-20T01:46:11;7.10;99.90
9824;DHT22;4951;50.778;7.196;2023-12-20T01:48:48;7.10;99.90
9824;DHT22;4951;50.778;7.196;2023-12-20T01:51:24;7.10;99.90
9824;DHT22;4951;50.778;7.196;2023-12-20T01:54:02;7.10;99.90
9824;DHT22;4951;50.778;7.196;2023-12-20T01:56:46;7.10;99.90
9824;DHT22;4951;50.778;7.196;2023-12-20T01:59:23;7.10;99.90
9824;DHT22;4951;50.778;7.196;2023-12-20T02:01:58;7.10;99.90
9824;DHT22;4951;50.778;7.196;2023-12-20T02:04:52;7.00;99.90
9824;DHT22;4951;50.778;7.196;2023-12-20T02:07:44;6.90;99.90
9824;DHT22;4951;50.778;7.196;2023-12-20T02:10:21;6.80;99.90
9824;DHT22;4951;50.778;7.196;2023-12-20T02:13:00;6.80;99.90
9824;DHT22;4951;50.778;7.196;2023-12-20T02:15:47;6.80;99.90
9824;DHT22;4951;50.778;7.196;2023-12-20T02:18:20;6.80;99.90
9824;DHT22;4951;50.778;7.196;2023-12-20T02:21:09;6.80;99.90
9824;DHT22;4951;50.778;7.196;2023-12-20T02:23:49;6.70;99.90
9824;DHT22;4951;50.778;7.196;2023-12-20T02:27:14;6.70;99.90
9824;DHT22;4951;50.778;7.196;2023-12-20T02:30:22;6.60;99.90
9824;DHT22;4951;50.778;7.196;2023-12-20T02:32:51;6.60;99.90
9824;DHT22;4951;50.778;7.196;2023-12-20T02:35:34;6.60;99.90
9824;DHT22;4951;50.778;7.196;2023-12-20T02:38:09;6.50;99.90
9824;DHT22;4951;50.778;7.196;2023-12-20T02:40:44;6.30;99.90
9824;DHT22;4951;50.778;7.196;2023-12-20T02:43:22;6.20;99.90
9824;DHT22;4951;50.778;7.196;2023-12-20T02:45:51;6.10;99.90
9824;DHT22;4951;50.778;7.196;2023-12-20T02:48:26;6.10;99.90
9824;DHT22;4951;50.778;7.196;2023-12-20T02:50:53;6.00;99.90
9824;DHT22;4951;50.778;7.196;2023-12-20T02:53:23;5.90;99.90
9824;DHT22;4951;50.778;7.196;2023-12-20T02:55:53;5.80;99.90
9824;DHT22;4951;50.778;7.196;2023-12-20T02:58:27;5.70;99.90
9824;DHT22;4951;50.778;7.196;2023-12-20T03:01:14;5.60;99.90
9824;DHT22;4951;50.778;7.196;2023-12-20T03:03:55;5.60;99.90
9824;DHT22;4951;50.778;7.196;2023-12-20T03:06:33;5.60;99.90
9824;DHT22;4951;50.778;7.196;2023-12-20T03:09:07;5.50;99.90
9824;DHT22;4951;50.778;7.196;2023-12-20T03:11:46;5.50;99.90
9824;DHT22;4951;50.778;7.196;2023-12-20T03:14:33;5.40;99.90
9824;DHT22;4951;50.778;7.196;2023-12-20T03:17:31;5.40;99.90
9824;DHT22;4951;50.778;7.196;2023-12-20T03:20:15;5.30;99.90
9824;DHT22;4951;50.778;7.196;2023-12-20T03:23:08;5.30;99.90
9824;DHT22;4951;50.778;7.196;2023-12-20T03:25:49;5.30;99.90
9824;DHT22;4951;50.778;7.196;2023-12-20T03:28:34;5.40;99.90
9824;DHT22;4951;50.778;7.196;2023-12-20T03:31:18;5.40;99.90
9824;DHT22;4951;50.778;7.196;2023-12-20T03:34:07;5.50;99.90
9824;DHT22;4951;50.778;7.196;2023-12-20T03:37:00;5.50;99.90
9824;DHT22;4951;50.778;7.196;2023-12-20T03:39:38;5.50;99.90
9824;DHT22;4951;50.778;7.196;2023-12-20T03:42:24;5.60;99.90
9824;DHT22;4951;50.778;7.196;2023-12-20T03:45:05;5.60;99.90
9824;DHT22;4951;50.778;7.196;2023-12-20T03:48:00;5.60;99.90
9824;DHT22;4951;50.778;7.196;2023-12-20T03:50:57;5.60;99.90
9824;DHT22;4951;50.778;7.196;2023-12-20T03:53:47;5.70;99.90
9824;DHT22;4951;50.778;7.196;2023-12-20T03:56:36;5.70;99.90
9824;DHT22;4951;50.778;7.196;2023-12-20T03:59:35;5.70;99.90
9824;DHT22;4951;50.778;7.196;2023-12-20T04:02:06;5.70;99.90
9824;DHT22;4951;50.778;7.196;2023-12-20T04:04:56;5.70;99.90
9824;DHT22;4951;50.778;7.196;2023-12-20T04:07:54;5.80;99.90
9824;DHT22;4951;50.778;7.196;2023-12-20T04:10:38;5.80;99.90
9824;DHT22;4951;50.778;7.196;2023-12-20T04:13:13;5.80;99.90
9824;DHT22;4951;50.778;7.196;2023-12-20T04:15:59;5.80;99.90
9824;DHT22;4951;50.778;7.196;2023-12-20T04:18:49;5.80;99.90
9824;DHT22;4951;50.778;7.196;2023-12-20T04:21:37;5.80;99.90
9824;DHT22;4951;50.778;7.196;2023-12-20T04:24:21;5.80;99.90
9824;DHT22;4951;50.778;7.196;2023-12-20T04:27:09;5.80;99.90
9824;DHT22;4951;50.778;7.196;2023-12-20T04:29:48;5.80;99.90
9824;DHT22;4951;50.778;7.196;2023-12-20T04:32:36;5.80;99.90
9824;DHT22;4951;50.778;7.196;2023-12-20T04:35:24;5.80;99.90
9824;DHT22;4951;50.778;7.196;2023-12-20T04:38:17;5.80;99.90
9824;DHT22;4951;50.778;7.196;2023-12-20T04:41:07;5.80;99.90
9824;DHT22;4951;50.778;7.196;2023-12-20T04:43:54;5.80;99.90
9824;DHT22;4951;50.778;7.196;2023-12-20T04:46:40;5.80;99.90
9824;DHT22;4951;50.778;7.196;2023-12-20T04:49:14;5.80;99.90
9824;DHT22;4951;50.778;7.196;2023-12-20T04:52:03;5.80;99.90
9824;DHT22;4951;50.778;7.196;2023-12-20T04:54:45;5.70;99.90
9824;DHT22;4951;50.778;7.196;2023-12-20T04:57:21;5.70;99.90
9824;DHT22;4951;50.778;7.196;2023-12-20T05:00:12;5.70;99.90
9824;DHT22;4951;50.778;7.196;2023-12-20T05:02:55;5.70;99.90
9824;DHT22;4951;50.778;7.196;2023-12-20T05:05:26;5.70;99.90
9824;DHT22;4951;50.778;7.196;2023-12-20T05:08:00;5.70;99.90
9824;DHT22;4951;50.778;7.196;2023-12-20T05:10:35;5.70;99.90
9824;DHT22;4951;50.778;7.196;2023-12-20T05:13:05;5.80;99.90
9824;DHT22;4951;50.778;7.196;2023-12-20T05:15:51;5.70;99.90
9824;DHT22;4951;50.778;7.196;2023-12-20T05:18:23;5.70;99.90
9824;DHT22;4951;50.778;7.196;2023-12-20T05:20:57;5.60;99.90
9824;DHT22;4951;50.778;7.196;2023-12-20T05:23:31;5.60;99.90
9824;DHT22;4951;50.778;7.196;2023-12-20T05:26:05;5.50;99.90
9824;DHT22;4951;50.778;7.196;2023-12-20T05:28:36;5.50;99.90
9824;DHT22;4951;50.778;7.196;2023-12-20T05:31:14;5.50;99.90
9824;DHT22;4951;50.778;7.196;2023-12-20T05:33:45;5.40;98.90
9824;DHT22;4951;50.778;7.196;2023-12-20T05:36:31;5.40;97.00
9824;DHT22;4951;50.778;7.196;2023-12-20T05:39:09;5.40;96.20
9824;DHT22;4951;50.778;7.196;2023-12-20T05:41:57;5.40;97.70
9824;DHT22;4951;50.778;7.196;2023-12-20T05:44:41;5.30;96.10
9824;DHT22;4951;50.778;7.196;2023-12-20T05:47:13;5.30;98.80
9824;DHT22;4951;50.778;7.196;2023-12-20T05:49:48;5.30;99.90
9824;DHT22;4951;50.778;7.196;2023-12-20T05:52:20;5.30;99.90
9824;DHT22;4951;50.778;7.196;2023-12-20T05:55:10;5.30;99.90
9824;DHT22;4951;50.778;7.196;2023-12-20T05:57:44;5.30;99.90
9824;DHT22;4951;50.778;7.196;2023-12-20T06:00:21;5.30;99.90
9824;DHT22;4951;50.778;7.196;2023-12-20T06:03:09;5.40;99.90
9824;DHT22;4951;50.778;7.196;2023-12-20T06:06:12;5.40;99.90
9824;DHT22;4951;50.778;7.196;2023-12-20T06:08:50;5.40;99.90
9824;DHT22;4951;50.778;7.196;2023-12-20T06:11:26;5.50;99.90
9824;DHT22;4951;50.778;7.196;2023-12-20T06:13:59;5.50;99.90
9824;DHT22;4951;50.778;7.196;2023-12-20T06:16:46;5.50;99.90
9824;DHT22;4951;50.778;7.196;2023-12-20T06:19:28;5.50;99.90
9824;DHT22;4951;50.778;7.196;2023-12-20T06:21:59;5.50;99.90
9824;DHT22;4951;50.778;7.196;2023-12-20T06:24:42;5.60;99.90
9824;DHT22;4951;50.778;7.196;2023-12-20T06:27:28;5.60;99.90
9824;DHT22;4951;50.778;7.196;2023-12-20T06:30:13;5.60;99.90
9824;DHT22;4951;50.778;7.196;2023-12-20T06:32:52;5.60;99.90
9824;DHT22;4951;50.778;7.196;2023-12-20T06:35:32;5.60;99.90
9824;DHT22;4951;50.778;7.196;2023-12-20T06:38:06;5.60;99.90
9824;DHT22;4951;50.778;7.196;2023-12-20T06:40:35;5.60;99.90
9824;DHT22;4951;50.778;7.196;2023-12-20T06:43:14;5.60;99.90
9824;DHT22;4951;50.778;7.196;2023-12-20T06:45:48;5.60;99.90
9824;DHT22;4951;50.778;7.196;2023-12-20T06:48:36;5.60;99.90
9824;DHT22;4951;50.778;7.196;2023-12-20T06:51:11;5.60;99.90
9824;DHT22;4951;50.778;7.196;2023-12-20T06:53:53;5.60;99.90
9824;DHT22;4951;50.778;7.196;2023-12-20T06:56:28;5.70;99.90
9824;DHT22;4951;50.778;7.196;2023-12-20T06:59:20;5.70;99.90
9824;DHT22;4951;50.778;7.196;2023-12-20T07:02:06;5.70;99.90
9824;DHT22;4951;50.778;7.196;2023-12-20T07:04:52;5.70;99.90
9824;DHT22;4951;50.778;7.196;2023-12-20T07:07:26;5.70;95.80
9824;DHT22;4951;50.778;7.196;2023-12-20T07:10:12;5.80;92.70
9824;DHT22;4951;50.778;7.196;2023-12-20T07:13:08;5.80;91.10
9824;DHT22;4951;50.778;7.196;2023-12-20T07:15:49;5.80;87.70
9824;DHT22;4951;50.778;7.196;2023-12-20T07:18:30;5.80;85.40
9824;DHT22;4951;50.778;7.196;2023-12-20T07:21:09;5.80;78.80
9824;DHT22;4951;50.778;7.196;2023-12-20T07:23:50;5.90;64.60
9824;DHT22;4951;50.778;7.196;2023-12-20T07:26:40;5.90;51.30
9824;DHT22;4951;50.778;7.196;2023-12-20T07:29:24;5.90;46.90
9824;DHT22;4951;50.778;7.196;2023-12-20T07:32:00;5.90;43.00
9824;DHT22;4951;50.778;7.196;2023-12-20T07:34:36;5.90;40.40
9824;DHT22;4951;50.778;7.196;2023-12-20T07:37:18;5.90;34.40
9824;DHT22;4951;50.778;7.196;2023-12-20T07:39:58;5.90;34.00
9824;DHT22;4951;50.778;7.196;2023-12-20T07:42:46;6.00;23.90
9824;DHT22;4951;50.778;7.196;2023-12-20T07:45:21;6.00;9.00
9824;DHT22;4951;50.778;7.196;2023-12-20T07:48:11;6.00;1.00
9824;DHT22;4951;50.778;7.196;2023-12-20T07:50:57;6.00;1.00
9824;DHT22;4951;50.778;7.196;2023-12-20T07:54:08;6.00;1.00
9824;DHT22;4951;50.778;7.196;2023-12-20T07:57:05;6.00;1.00
9824;DHT22;4951;50.778;7.196;2023-12-20T07:59:40;6.10;1.00
9824;DHT22;4951;50.778;7.196;2023-12-20T08:02:19;6.10;1.00
9824;DHT22;4951;50.778;7.196;2023-12-20T08:05:06;6.10;1.00
9824;DHT22;4951;50.778;7.196;2023-12-20T08:07:48;6.10;1.00
9824;DHT22;4951;50.778;7.196;2023-12-20T08:10:31;6.10;1.00
9824;DHT22;4951;50.778;7.196;2023-12-20T08:13:36;6.20;1.00
9824;DHT22;4951;50.778;7.196;2023-12-20T08:16:13;6.20;1.00
9824;DHT22;4951;50.778;7.196;2023-12-20T08:18:56;6.20;1.00
9824;DHT22;4951;50.778;7.196;2023-12-20T08:22:09;6.20;1.00
9824;DHT22;4951;50.778;7.196;2023-12-20T08:24:44;6.20;1.00
9824;DHT22;4951;50.778;7.196;2023-12-20T08:27:15;6.30;1.00
9824;DHT22;4951;50.778;7.196;2023-12-20T08:30:20;6.20;1.00
9824;DHT22;4951;50.778;7.196;2023-12-20T08:32:57;6.30;1.00
9824;DHT22;4951;50.778;7.196;2023-12-20T08:35:44;6.30;1.00
9824;DHT22;4951;50.778;7.196;2023-12-20T08:38:43;6.30;1.00
9824;DHT22;4951;50.778;7.196;2023-12-20T08:41:39;6.40;1.00
9824;DHT22;4951;50.778;7.196;2023-12-20T08:44:27;6.40;1.00
9824;DHT22;4951;50.778;7.196;2023-12-20T08:47:16;6.50;1.00
9824;DHT22;4951;50.778;7.196;2023-12-20T08:49:48;6.50;1.00
9824;DHT22;4951;50.778;7.196;2023-12-20T08:52:24;6.50;1.00
9824;DHT22;4951;50.778;7.196;2023-12-20T08:55:12;6.60;1.00
9824;DHT22;4951;50.778;7.196;2023-12-20T08:57:48;6.60;1.00
9824;DHT22;4951;50.778;7.196;2023-12-20T09:00:19;6.60;1.00
9824;DHT22;4951;50.778;7.196;2023-12-20T09:03:11;6.60;1.00
9824;DHT22;4951;50.778;7.196;2023-12-20T09:05:49;6.60;1.00
9824;DHT22;4951;50.778;7.196;2023-12-20T09:08:26;6.70;1.00
9824;DHT22;4951;50.778;7.196;2023-12-20T09:11:05;6.70;1.00
9824;DHT22;4951;50.778;7.196;2023-12-20T09:13:43;6.70;1.00
9824;DHT22;4951;50.778;7.196;2023-12-20T09:16:34;6.70;1.00
9824;DHT22;4951;50.778;7.196;2023-12-20T09:19:07;6.70;1.00
9824;DHT22;4951;50.778;7.196;2023-12-20T09:21:50;6.70;1.00
9824;DHT22;4951;50.778;7.196;2023-12-20T09:24:26;6.80;1.00
9824;DHT22;4951;50.778;7.196;2023-12-20T09:27:02;6.80;1.00
9824;DHT22;4951;50.778;7.196;2023-12-20T09:29:36;6.80;1.00
9824;DHT22;4951;50.778;7.196;2023-12-20T09:32:18;6.80;1.00
9824;DHT22;4951;50.778;7.196;2023-12-20T09:34:54;6.80;1.00
9824;DHT22;4951;50.778;7.196;2023-12-20T09:37:35;6.80;1.00
9824;DHT22;4951;50.778;7.196;2023-12-20T09:40:10;6.80;99.90
9824;DHT22;4951;50.778;7.196;2023-12-20T09:43:00;6.80;99.90
9824;DHT22;4951;50.778;7.196;2023-12-20T09:45:45;6.80;99.90
9824;DHT22;4951;50.778;7.196;2023-12-20T09:48:26;6.80;99.90
9824;DHT22;4951;50.778;7.196;2023-12-20T09:51:01;6.80;99.90
9824;DHT22;4951;50.778;7.196;2023-12-20T09:53:38;6.80;99.90
9824;DHT22;4951;50.778;7.196;2023-12-20T09:56:28;6.80;99.90
9824;DHT22;4951;50.778;7.196;2023-12-20T09:59:21;6.80;99.90
9824;DHT22;4951;50.778;7.196;2023-12-20T10:02:06;6.80;99.90
9824;DHT22;4951;50.778;7.196;2023-12-20T10:04:46;6.80;99.90
9824;DHT22;4951;50.778;7.196;2023-12-20T10:07:26;6.80;99.90
9824;DHT22;4951;50.778;7.196;2023-12-20T10:10:08;6.80;99.90
9824;DHT22;4951;50.778;7.196;2023-12-20T10:13:01;6.80;99.90
9824;DHT22;4951;50.778;7.196;2023-12-20T10:15:41;6.80;99.90
9824;DHT22;4951;50.778;7.196;2023-12-20T10:18:30;6.80;99.90
9824;DHT22;4951;50.778;7.196;2023-12-20T10:21:22;6.90;99.90
9824;DHT22;4951;50.778;7.196;2023-12-20T10:24:04;6.90;99.90
9824;DHT22;4951;50.778;7.196;2023-12-20T10:27:02;6.90;99.90
9824;DHT22;4951;50.778;7.196;2023-12-20T10:29:49;6.90;99.90
9824;DHT22;4951;50.778;7.196;2023-12-20T10:32:28;6.90;99.90
9824;DHT22;4951;50.778;7.196;2023-12-20T10:35:14;6.90;99.90
9824;DHT22;4951;50.778;7.196;2023-12-20T10:37:55;6.90;99.90
9824;DHT22;4951;50.778;7.196;2023-12-20T10:40:34;6.90;99.90
9824;DHT22;4951;50.778;7.196;2023-12-20T10:43:20;6.90;99.90
9824;DHT22;4951;50.778;7.196;2023-12-20T10:45:54;6.90;99.90
9824;DHT22;4951;50.778;7.196;2023-12-20T10:48:32;6.90;99.90
9824;DHT22;4951;50.778;7.196;2023-12-20T10:51:20;7.00;99.90
9824;DHT22;4951;50.778;7.196;2023-12-20T10:54:04;7.00;99.90
9824;DHT22;4951;50.778;7.196;2023-12-20T10:56:48;7.00;99.90
9824;DHT22;4951;50.778;7.196;2023-12-20T10:59:30;7.10;99.90
9824;DHT22;4951;50.778;7.196;2023-12-20T11:02:20;7.10;99.90
9824;DHT22;4951;50.778;7.196;2023-12-20T11:05:10;7.10;99.90
9824;DHT22;4951;50.778;7.196;2023-12-20T11:08:09;7.20;99.90
9824;DHT22;4951;50.778;7.196;2023-12-20T11:10:56;7.20;99.90
9824;DHT22;4951;50.778;7.196;2023-12-20T11:13:48;7.20;99.90
9824;DHT22;4951;50.778;7.196;2023-12-20T11:16:24;7.20;99.90
9824;DHT22;4951;50.778;7.196;2023-12-20T11:18:56;7.20;99.90
9824;DHT22;4951;50.778;7.196;2023-12-20T11:21:41;7.20;99.90
9824;DHT22;4951;50.778;7.196;2023-12-20T11:24:25;7.20;99.90
9824;DHT22;4951;50.778;7.196;2023-12-20T11:27:06;7.10;99.90
9824;DHT22;4951;50.778;7.196;2023-12-20T11:29:43;7.20;99.90
9824;DHT22;4951;50.778;7.196;2023-12-20T11:32:29;7.20;99.90
9824;DHT22;4951;50.778;7.196;2023-12-20T11:35:20;7.20;99.90
9824;DHT22;4951;50.778;7.196;2023-12-20T11:37:58;7.20;99.90
9824;DHT22;4951;50.778;7.196;2023-12-20T11:40:38;7.20;99.90
9824;DHT22;4951;50.778;7.196;2023-12-20T11:43:29;7.20;99.90
9824;DHT22;4951;50.778;7.196;2023-12-20T11:46:06;7.20;99.90
9824;DHT22;4951;50.778;7.196;2023-12-20T11:48:48;7.20;99.90
9824;DHT22;4951;50.778;7.196;2023-12-20T11:51:22;7.20;99.90
9824;DHT22;4951;50.778;7.196;2023-12-20T11:54:34;7.20;99.90
9824;DHT22;4951;50.778;7.196;2023-12-20T11:57:08;7.20;99.90
9824;DHT22;4951;50.778;7.196;2023-12-20T11:59:40;7.20;99.90
9824;DHT22;4951;50.778;7.196;2023-12-20T12:02:25;7.30;44.70
9824;DHT22;4951;50.778;7.196;2023-12-20T12:05:07;7.30;56.50
9824;DHT22;4951;50.778;7.196;2023-12-20T12:07:42;7.40;27.90
9824;DHT22;4951;50.778;7.196;2023-12-20T12:10:19;7.40;66.10
9824;DHT22;4951;50.778;7.196;2023-12-20T12:12:59;7.40;75.30
9824;DHT22;4951;50.778;7.196;2023-12-20T12:15:35;7.40;26.20
9824;DHT22;4951;50.778;7.196;2023-12-20T12:18:19;7.40;70.60
9824;DHT22;4951;50.778;7.196;2023-12-20T12:21:00;7.40;60.60
9824;DHT22;4951;50.778;7.196;2023-12-20T12:23:32;7.50;31.10
9824;DHT22;4951;50.778;7.196;2023-12-20T12:26:08;7.50;1.00
9824;DHT22;4951;50.778;7.196;2023-12-20T12:28:48;7.50;4.70
9824;DHT22;4951;50.778;7.196;2023-12-20T12:31:36;7.50;1.00
9824;DHT22;4951;50.778;7.196;2023-12-20T12:34:15;7.50;1.00
9824;DHT22;4951;50.778;7.196;2023-12-20T12:37:01;7.50;1.00
9824;DHT22;4951;50.778;7.196;2023-12-20T12:39:40;7.50;1.00
9824;DHT22;4951;50.778;7.196;2023-12-20T12:42:31;7.50;1.00
9824;DHT22;4951;50.778;7.196;2023-12-20T12:45:14;7.50;1.00
9824;DHT22;4951;50.778;7.196;2023-12-20T12:47:54;7.60;1.00
9824;DHT22;4951;50.778;7.196;2023-12-20T12:50:27;7.50;1.00
9824;DHT22;4951;50.778;7.196;2023-12-20T12:53:11;7.60;1.00
9824;DHT22;4951;50.778;7.196;2023-12-20T12:55:49;7.60;1.00
9824;DHT22;4951;50.778;7.196;2023-12-20T12:58:28;7.60;1.00
9824;DHT22;4951;50.778;7.196;2023-12-20T13:01:02;7.60;1.00
9824;DHT22;4951;50.778;7.196;2023-12-20T13:03:59;7.60;1.00
9824;DHT22;4951;50.778;7.196;2023-12-20T13:06:45;7.60;1.00
9824;DHT22;4951;50.778;7.196;2023-12-20T13:09:42;7.60;1.00
9824;DHT22;4951;50.778;7.196;2023-12-20T13:12:24;7.60;1.00
9824;DHT22;4951;50.778;7.196;2023-12-20T13:15:32;7.60;1.00
9824;DHT22;4951;50.778;7.196;2023-12-20T13:18:12;7.60;1.00
9824;DHT22;4951;50.778;7.196;2023-12-20T13:21:22;7.60;1.00
9824;DHT22;4951;50.778;7.196;2023-12-20T13:23:59;7.60;1.00
9824;DHT22;4951;50.778;7.196;2023-12-20T13:26:39;7.60;1.00
9824;DHT22;4951;50.778;7.196;2023-12-20T13:29:21;7.60;1.00
9824;DHT22;4951;50.778;7.196;2023-12-20T13:31:56;7.60;1.00
9824;DHT22;4951;50.778;7.196;2023-12-20T13:34:40;7.60;1.00
9824;DHT22;4951;50.778;7.196;2023-12-20T13:37:46;7.50;1.00
9824;DHT22;4951;50.778;7.196;2023-12-20T13:40:22;7.40;41.40
9824;DHT22;4951;50.778;7.196;2023-12-20T13:43:08;7.30;99.90
9824;DHT22;4951;50.778;7.196;2023-12-20T13:45:48;7.20;99.90
9824;DHT22;4951;50.778;7.196;2023-12-20T13:48:24;7.10;99.90
9824;DHT22;4951;50.778;7.196;2023-12-20T13:50:59;7.10;99.90
9824;DHT22;4951;50.778;7.196;2023-12-20T13:53:54;7.00;1.00
9824;DHT22;4951;50.778;7.196;2023-12-20T13:56:28;6.90;1.00
9824;DHT22;4951;50.778;7.196;2023-12-20T13:58:59;6.90;1.00
9824;DHT22;4951;50.778;7.196;2023-12-20T14:01:31;6.90;1.00
9824;DHT22;4951;50.778;7.196;2023-12-20T14:06:53;6.90;1.00
9824;DHT22;4951;50.778;7.196;2023-12-20T14:09:25;6.90;1.00
9824;DHT22;4951;50.778;7.196;2023-12-20T14:12:08;6.90;1.00
9824;DHT22;4951;50.778;7.196;2023-12-20T14:14:42;7.00;1.00
9824;DHT22;4951;50.778;7.196;2023-12-20T14:17:17;7.00;1.00
9824;DHT22;4951;50.778;7.196;2023-12-20T14:20:12;7.00;1.00
9824;DHT22;4951;50.778;7.196;2023-12-20T14:23:09;7.00;1.00
9824;DHT22;4951;50.778;7.196;2023-12-20T14:25:56;7.10;1.00
9824;DHT22;4951;50.778;7.196;2023-12-20T14:28:37;7.10;1.00
9824;DHT22;4951;50.778;7.196;2023-12-20T14:31:09;7.10;1.00
9824;DHT22;4951;50.778;7.196;2023-12-20T14:33:45;7.10;1.00
9824;DHT22;4951;50.778;7.196;2023-12-20T14:36:28;7.00;1.00
9824;DHT22;4951;50.778;7.196;2023-12-20T14:39:06;7.10;1.00
9824;DHT22;4951;50.778;7.196;2023-12-20T14:41:56;7.00;1.00
9824;DHT22;4951;50.778;7.196;2023-12-20T14:44:36;7.10;1.00
9824;DHT22;4951;50.778;7.196;2023-12-20T14:47:09;7.10;1.00
9824;DHT22;4951;50.778;7.196;2023-12-20T14:49:56;7.10;1.00
9824;DHT22;4951;50.778;7.196;2023-12-20T14:52:32;7.10;1.00
9824;DHT22;4951;50.778;7.196;2023-12-20T15:01:06;7.10;1.00
9824;DHT22;4951;50.778;7.196;2023-12-20T15:03:48;7.10;1.00
9824;DHT22;4951;50.778;7.196;2023-12-20T15:06:42;7.10;1.00
9824;DHT22;4951;50.778;7.196;2023-12-20T15:09:25;7.10;1.00
9824;DHT22;4951;50.778;7.196;2023-12-20T15:12:27;7.10;1.00
9824;DHT22;4951;50.778;7.196;2023-12-20T15:15:00;7.10;1.00
9824;DHT22;4951;50.778;7.196;2023-12-20T15:18:02;7.20;1.00
9824;DHT22;4951;50.778;7.196;2023-12-20T15:20:36;7.20;1.00
9824;DHT22;4951;50.778;7.196;2023-12-20T15:23:21;7.20;1.00
9824;DHT22;4951;50.778;7.196;2023-12-20T15:26:00;7.10;1.00
9824;DHT22;4951;50.778;7.196;2023-12-20T15:28:35;7.20;1.00
9824;DHT22;4951;50.778;7.196;2023-12-20T15:31:30;7.20;1.00
9824;DHT22;4951;50.778;7.196;2023-12-20T15:34:20;7.20;1.00
9824;DHT22;4951;50.778;7.196;2023-12-20T15:37:09;7.20;1.00
9824;DHT22;4951;50.778;7.196;2023-12-20T15:39:47;7.20;1.00
9824;DHT22;4951;50.778;7.196;2023-12-20T15:42:38;7.20;1.00
9824;DHT22;4951;50.778;7.196;2023-12-20T15:45:21;7.20;1.00
9824;DHT22;4951;50.778;7.196;2023-12-20T15:47:59;7.20;1.00
9824;DHT22;4951;50.778;7.196;2023-12-20T15:50:57;7.20;1.00
9824;DHT22;4951;50.778;7.196;2023-12-20T15:53:53;7.30;1.00
9824;DHT22;4951;50.778;7.196;2023-12-20T15:56:45;7.20;1.00
9824;DHT22;4951;50.778;7.196;2023-12-20T15:59:17;7.30;1.00
9824;DHT22;4951;50.778;7.196;2023-12-20T16:01:54;7.30;1.00
9824;DHT22;4951;50.778;7.196;2023-12-20T16:04:35;7.30;1.00
9824;DHT22;4951;50.778;7.196;2023-12-20T16:07:23;7.30;1.00
9824;DHT22;4951;50.778;7.196;2023-12-20T16:09:54;7.30;1.00
9824;DHT22;4951;50.778;7.196;2023-12-20T16:12:35;7.30;1.00
9824;DHT22;4951;50.778;7.196;2023-12-20T16:15:18;7.30;1.00
9824;DHT22;4951;50.778;7.196;2023-12-20T16:18:01;7.30;1.00
9824;DHT22;4951;50.778;7.196;2023-12-20T16:20:48;7.40;1.00
9824;DHT22;4951;50.778;7.196;2023-12-20T16:23:19;7.40;1.00
9824;DHT22;4951;50.778;7.196;2023-12-20T16:25:50;7.40;1.00
9824;DHT22;4951;50.778;7.196;2023-12-20T16:28:18;7.50;1.00
9824;DHT22;4951;50.778;7.196;2023-12-20T16:30:54;7.50;1.00
9824;DHT22;4951;50.778;7.196;2023-12-20T16:33:29;7.50;1.00
9824;DHT22;4951;50.778;7.196;2023-12-20T16:36:14;7.50;1.00
9824;DHT22;4951;50.778;7.196;2023-12-20T16:39:07;7.50;1.00
9824;DHT22;4951;50.778;7.196;2023-12-20T16:41:45;7.50;1.00
9824;DHT22;4951;50.778;7.196;2023-12-20T16:44:34;7.50;1.00
9824;DHT22;4951;50.778;7.196;2023-12-20T16:47:14;7.50;1.00
9824;DHT22;4951;50.778;7.196;2023-12-20T16:50:03;7.50;1.00
9824;DHT22;4951;50.778;7.196;2023-12-20T16:52:56;7.40;1.00
9824;DHT22;4951;50.778;7.196;2023-12-20T16:55:43;7.50;1.00
9824;DHT22;4951;50.778;7.196;2023-12-20T16:58:21;7.50;1.00
9824;DHT22;4951;50.778;7.196;2023-12-20T17:01:10;7.40;1.00
9824;DHT22;4951;50.778;7.196;2023-12-20T17:04:12;7.40;1.00
9824;DHT22;4951;50.778;7.196;2023-12-20T17:07:00;7.50;1.00
9824;DHT22;4951;50.778;7.196;2023-12-20T17:10:02;7.50;1.00
9824;DHT22;4951;50.778;7.196;2023-12-20T17:12:40;7.50;1.00
9824;DHT22;4951;50.778;7.196;2023-12-20T17:15:19;7.50;1.00
9824;DHT22;4951;50.778;7.196;2023-12-20T17:18:05;7.50;1.00
9824;DHT22;4951;50.778;7.196;2023-12-20T17:20:39;7.50;1.00
9824;DHT22;4951;50.778;7.196;2023-12-20T17:23:20;7.50;1.00
9824;DHT22;4951;50.778;7.196;2023-12-20T17:25:54;7.50;1.00
9824;DHT22;4951;50.778;7.196;2023-12-20T17:28:34;7.50;1.00
9824;DHT22;4951;50.778;7.196;2023-12-20T17:31:18;7.50;1.00
9824;DHT22;4951;50.778;7.196;2023-12-20T17:34:00;7.50;1.00
9824;DHT22;4951;50.778;7.196;2023-12-20T17:36:48;7.50;1.00
9824;DHT22;4951;50.778;7.196;2023-12-20T17:39:29;7.60;1.00
9824;DHT22;4951;50.778;7.196;2023-12-20T17:42:15;7.50;1.00
9824;DHT22;4951;50.778;7.196;2023-12-20T17:44:46;7.60;1.00
9824;DHT22;4951;50.778;7.196;2023-12-20T17:47:29;7.60;1.00
9824;DHT22;4951;50.778;7.196;2023-12-20T17:50:12;7.60;1.00
9824;DHT22;4951;50.778;7.196;2023-12-20T17:52:51;7.60;1.00
9824;DHT22;4951;50.778;7.196;2023-12-20T17:55:20;7.60;1.00
9824;DHT22;4951;50.778;7.196;2023-12-20T17:58:03;7.60;1.00
9824;DHT22;4951;50.778;7.196;2023-12-20T18:00:50;7.60;1.00
9824;DHT22;4951;50.778;7.196;2023-12-20T18:03:25;7.60;1.00
9824;DHT22;4951;50.778;7.196;2023-12-20T18:06:01;7.60;1.00
9824;DHT22;4951;50.778;7.196;2023-12-20T18:08:38;7.60;1.00
9824;DHT22;4951;50.778;7.196;2023-12-20T18:11:16;7.70;1.00
9824;DHT22;4951;50.778;7.196;2023-12-20T18:13:57;7.70;1.00
9824;DHT22;4951;50.778;7.196;2023-12-20T18:16:54;7.70;1.00